Oldtown, Maryland
Current Conditions -  °F | °C
As of 4:13 AM on Thursday 23 Oct 2014 (Local Time) from KCBE Reporting Station
Overcast Overcast  
Wind Chill: 50°   Ceiling: 2500
Heat Index: 50°   Visibility: 10mi
Dew Point: 41°   Wind: 10mph
Humidity: 71%   Direction: 330°NNW
Pressure: 30.07"   Gusts: 22mph
Location:  39.54°N, 78.61°W
Report Text: KCBE 230813Z AUTO 33009G19KT 311V011 10SM OVC025 10/05 A3007 RMK AO1
Loading
Personal Weather Stations






























Interactive Weather Map
Tropical Storm Tracking
New forecast layout! Learn more

10-Day Weather Forecast

Advertisements
Track Severe Weather on mobile